Time;durP1;ratioP1;P1;durP2;ratioP2;P2;SDS_P1;SDS_P2;PMS_P1;PMS_P2;Temp;Humidity;BMP_temperature;BMP_pressure;BME280_temperature;BME280_humidity;BME280_pressure;Samples;Min_cycle;Max_cycle;Signal;HPM_P1;HPM_P2
2022/12/09 00:00:48;;;;;;;;;;;0.60;99.90;;;;;;5044484;28;20339;-69
2022/12/09 00:03:13;;;;;;;;;;;0.10;99.90;;;;;;5028602;28;20319;-69
2022/12/09 00:05:40;;;;;;;;;;;0.10;99.90;;;;;;5044523;28;20248;-69
2022/12/09 00:08:05;;;;;;;;;;;0.00;99.90;;;;;;5027528;28;19929;-69
2022/12/09 00:10:31;;;;;;;;;;;0.00;99.90;;;;;;5028625;28;19921;-69
2022/12/09 00:12:56;;;;;;;;;;;0.00;99.90;;;;;;5028199;28;19921;-69
2022/12/09 00:15:22;;;;;;;;;;;0.00;99.90;;;;;;5044451;28;20315;-69
2022/12/09 00:17:48;;;;;;;;;;;0.00;99.90;;;;;;5060972;28;19921;-69
2022/12/09 00:20:13;;;;;;;;;;;0.00;99.90;;;;;;5043452;28;19921;-69
2022/12/09 00:22:39;;;;;;;;;;;0.00;99.90;;;;;;5028751;28;19948;-69
2022/12/09 00:25:05;;;;;;;;;;;0.40;99.90;;;;;;5043069;28;19970;-70
2022/12/09 00:27:30;;;;;;;;;;;0.00;99.90;;;;;;5010825;28;19929;-70
2022/12/09 00:29:56;;;;;;;;;;;-0.10;99.90;;;;;;5060878;28;20310;-69
2022/12/09 00:32:21;;;;;;;;;;;-0.10;99.90;;;;;;5060444;28;19921;-69
2022/12/09 00:34:47;;;;;;;;;;;-0.10;99.90;;;;;;5028619;28;19921;-69
2022/12/09 00:37:13;;;;;;;;;;;-0.10;99.90;;;;;;5043656;28;19921;-69
2022/12/09 00:39:38;;;;;;;;;;;-0.10;99.90;;;;;;5044024;28;19921;-69
2022/12/09 00:42:04;;;;;;;;;;;-0.10;99.90;;;;;;5028116;28;19921;-69
2022/12/09 00:44:29;;;;;;;;;;;-0.10;99.90;;;;;;5045402;28;20375;-69
2022/12/09 00:46:55;;;;;;;;;;;0.00;99.90;;;;;;5064300;28;20012;-69
2022/12/09 00:49:20;;;;;;;;;;;0.00;99.90;;;;;;5031196;28;19928;-68
2022/12/09 00:51:46;;;;;;;;;;;-0.10;99.90;;;;;;5047208;28;19921;-70
2022/12/09 00:54:11;;;;;;;;;;;0.80;99.90;;;;;;5047066;28;19985;-69
2022/12/09 00:56:37;;;;;;;;;;;0.00;99.90;;;;;;5046987;28;20020;-70
2022/12/09 00:59:03;;;;;;;;;;;0.00;99.90;;;;;;5047094;28;19925;-70
2022/12/09 01:01:28;;;;;;;;;;;-0.10;99.90;;;;;;5046573;28;19936;-70
2022/12/09 01:03:54;;;;;;;;;;;-0.10;99.90;;;;;;5031669;28;19927;-69
2022/12/09 01:06:21;;;;;;;;;;;-0.10;99.90;;;;;;5030224;28;19921;-69
2022/12/09 01:08:47;;;;;;;;;;;-0.10;99.90;;;;;;5013794;28;19928;-69
2022/12/09 01:11:20;;;;;;;;;;;-0.10;99.90;;;;;;5031009;28;19921;-68
2022/12/09 01:13:47;;;;;;;;;;;-0.10;99.90;;;;;;5047222;28;20016;-69
2022/12/09 01:16:14;;;;;;;;;;;-0.20;99.90;;;;;;4997422;28;19990;-70
2022/12/09 01:18:39;;;;;;;;;;;-0.20;99.90;;;;;;5046551;28;19925;-70
2022/12/09 01:21:05;;;;;;;;;;;-0.20;99.90;;;;;;5029759;28;19921;-69
2022/12/09 01:23:30;;;;;;;;;;;-0.20;99.90;;;;;;5030355;28;19936;-70
2022/12/09 01:25:56;;;;;;;;;;;-0.20;99.90;;;;;;5030247;28;19928;-70
2022/12/09 01:28:22;;;;;;;;;;;0.40;99.90;;;;;;5046381;28;19921;-70
2022/12/09 01:30:47;;;;;;;;;;;0.20;99.90;;;;;;5030207;28;19927;-69
2022/12/09 01:33:13;;;;;;;;;;;-0.20;99.90;;;;;;5046585;28;20001;-69
2022/12/09 01:35:39;;;;;;;;;;;-0.20;99.90;;;;;;5046774;28;19999;-69
2022/12/09 01:38:05;;;;;;;;;;;0.20;99.90;;;;;;5046950;27;19964;-69
2022/12/09 01:40:30;;;;;;;;;;;-0.20;99.90;;;;;;5012810;28;19960;-69
2022/12/09 01:42:56;;;;;;;;;;;-0.20;99.90;;;;;;5046916;28;19921;-69
2022/12/09 01:45:22;;;;;;;;;;;0.00;99.90;;;;;;5030876;28;19928;-69
2022/12/09 01:47:50;;;;;;;;;;;0.20;99.90;;;;;;5046738;28;19998;-70
2022/12/09 01:50:15;;;;;;;;;;;-0.10;99.90;;;;;;5046089;28;19947;-70
2022/12/09 01:52:41;;;;;;;;;;;-0.20;99.90;;;;;;5046375;28;19921;-69
2022/12/09 01:55:07;;;;;;;;;;;-0.10;99.90;;;;;;5045407;28;19979;-70
2022/12/09 01:57:33;;;;;;;;;;;-0.20;99.90;;;;;;5029235;28;19925;-70
2022/12/09 01:59:58;;;;;;;;;;;-0.10;99.90;;;;;;5045898;28;19929;-70
2022/12/09 02:02:26;;;;;;;;;;;0.50;99.90;;;;;;5046044;28;20257;-70
2022/12/09 02:04:53;;;;;;;;;;;-0.10;99.90;;;;;;4997055;28;19921;-70
2022/12/09 02:07:19;;;;;;;;;;;-0.10;99.90;;;;;;5012770;28;19932;-70
2022/12/09 02:09:45;;;;;;;;;;;-0.20;99.90;;;;;;5030682;28;19921;-70
2022/12/09 02:12:12;;;;;;;;;;;-0.20;99.90;;;;;;5045693;28;19970;-70
2022/12/09 02:15:04;;;;;;;;;;;-0.20;99.90;;;;;;5013142;28;20070;-68
2022/12/09 02:17:38;;;;;;;;;;;-0.20;99.90;;;;;;4999915;28;19922;-68
2022/12/09 02:20:04;;;;;;;;;;;-0.20;99.90;;;;;;5030320;28;19932;-68
2022/12/09 02:22:52;;;;;;;;;;;-0.20;99.90;;;;;;5044843;28;20005;-69
2022/12/09 02:25:33;;;;;;;;;;;-0.10;99.90;;;;;;5045465;28;19938;-69
2022/12/09 02:28:17;;;;;;;;;;;-0.20;99.90;;;;;;5045883;28;19933;-69
2022/12/09 02:30:46;;;;;;;;;;;-0.20;99.90;;;;;;5045651;28;19925;-69
2022/12/09 02:33:14;;;;;;;;;;;-0.20;99.90;;;;;;5030035;28;19982;-69
2022/12/09 02:35:40;;;;;;;;;;;-0.20;99.90;;;;;;5028194;28;19933;-70
2022/12/09 02:38:24;;;;;;;;;;;-0.20;99.90;;;;;;5045672;28;19925;-69
2022/12/09 02:40:57;;;;;;;;;;;-0.20;99.90;;;;;;5045304;28;19977;-69
2022/12/09 02:43:24;;;;;;;;;;;-0.20;99.90;;;;;;5029388;28;20024;-69
2022/12/09 02:45:51;;;;;;;;;;;-0.20;99.90;;;;;;5029987;28;19931;-70
2022/12/09 02:48:18;;;;;;;;;;;-0.20;99.90;;;;;;5045546;28;19968;-70
2022/12/09 02:50:45;;;;;;;;;;;-0.20;99.90;;;;;;5029629;28;19941;-69
2022/12/09 02:53:12;;;;;;;;;;;-0.20;99.90;;;;;;5045387;28;19925;-69
2022/12/09 02:55:39;;;;;;;;;;;-0.20;99.90;;;;;;5045108;28;19949;-69
2022/12/09 02:58:04;;;;;;;;;;;-0.20;99.90;;;;;;5029835;28;19978;-70
2022/12/09 03:00:30;;;;;;;;;;;0.10;99.90;;;;;;5044427;28;19925;-68
2022/12/09 03:03:03;;;;;;;;;;;-0.20;99.90;;;;;;5045050;28;20024;-69
2022/12/09 03:05:35;;;;;;;;;;;-0.20;99.90;;;;;;5028202;28;20001;-69
2022/12/09 03:08:10;;;;;;;;;;;-0.20;99.90;;;;;;5029276;28;19970;-69
2022/12/09 03:10:38;;;;;;;;;;;-0.20;99.90;;;;;;5044884;28;19993;-68
2022/12/09 03:13:22;;;;;;;;;;;-0.20;99.90;;;;;;4994664;28;20012;-69
2022/12/09 03:15:51;;;;;;;;;;;-0.20;99.90;;;;;;5021847;28;19926;-69
2022/12/09 03:18:18;;;;;;;;;;;-0.20;99.90;;;;;;5021910;28;19965;-69
2022/12/09 03:20:46;;;;;;;;;;;-0.20;99.90;;;;;;5004880;28;20552;-69
2022/12/09 03:23:13;;;;;;;;;;;-0.20;99.90;;;;;;5021441;28;20031;-69
2022/12/09 03:25:40;;;;;;;;;;;-0.20;99.90;;;;;;5021419;28;19930;-69
2022/12/09 03:28:09;;;;;;;;;;;-0.20;99.90;;;;;;5021222;28;20319;-69
2022/12/09 03:30:37;;;;;;;;;;;0.10;99.90;;;;;;5021472;28;19933;-69
2022/12/09 03:33:03;;;;;;;;;;;-0.20;99.90;;;;;;5004535;28;20433;-69
2022/12/09 03:35:31;;;;;;;;;;;-0.30;99.90;;;;;;4989396;28;19929;-70
2022/12/09 03:37:58;;;;;;;;;;;0.30;99.90;;;;;;5005422;28;19964;-70
2022/12/09 03:40:26;;;;;;;;;;;-0.30;99.90;;;;;;4989919;28;20276;-70
2022/12/09 03:43:00;;;;;;;;;;;0.40;99.90;;;;;;5021182;28;19965;-71
2022/12/09 03:45:26;;;;;;;;;;;-0.10;99.90;;;;;;4989934;28;19932;-69
2022/12/09 03:47:52;;;;;;;;;;;-0.20;99.90;;;;;;5021280;28;19929;-70
2022/12/09 03:50:18;;;;;;;;;;;-0.10;99.90;;;;;;5005117;28;19926;-70
2022/12/09 03:52:46;;;;;;;;;;;-0.10;99.90;;;;;;5021114;28;19925;-69
2022/12/09 03:55:18;;;;;;;;;;;-0.20;99.90;;;;;;4989378;28;19926;-69
2022/12/09 03:57:44;;;;;;;;;;;-0.20;99.90;;;;;;5021227;28;20071;-67
2022/12/09 04:00:10;;;;;;;;;;;-0.20;99.90;;;;;;5004992;28;19932;-69
2022/12/09 04:02:36;;;;;;;;;;;-0.20;99.90;;;;;;5021092;28;20291;-69
2022/12/09 04:05:02;;;;;;;;;;;-0.20;99.90;;;;;;5004766;28;20373;-69
2022/12/09 04:07:27;;;;;;;;;;;-0.20;99.90;;;;;;5021279;28;20008;-69
2022/12/09 04:09:53;;;;;;;;;;;-0.20;99.90;;;;;;4988932;28;19932;-69
2022/12/09 04:12:18;;;;;;;;;;;-0.20;99.90;;;;;;5031663;28;19929;-69
2022/12/09 04:14:44;;;;;;;;;;;-0.20;99.90;;;;;;5027121;28;19925;-70
2022/12/09 04:17:10;;;;;;;;;;;-0.20;99.90;;;;;;5044281;28;19925;-68
2022/12/09 04:19:36;;;;;;;;;;;-0.20;99.90;;;;;;5030074;28;19931;-68
2022/12/09 04:22:01;;;;;;;;;;;-0.30;99.90;;;;;;5031769;28;19925;-69
2022/12/09 04:24:27;;;;;;;;;;;-0.20;99.90;;;;;;5064428;28;19925;-69
2022/12/09 04:26:52;;;;;;;;;;;-0.20;99.90;;;;;;5031725;28;20449;-69
2022/12/09 04:29:18;;;;;;;;;;;-0.10;99.90;;;;;;5047594;28;19929;-69
2022/12/09 04:31:43;;;;;;;;;;;-0.30;99.90;;;;;;5046962;28;20278;-69
2022/12/09 04:34:09;;;;;;;;;;;-0.20;99.90;;;;;;5031556;28;19987;-69
2022/12/09 04:36:35;;;;;;;;;;;-0.30;99.90;;;;;;5031439;28;19955;-69
2022/12/09 04:39:00;;;;;;;;;;;-0.30;99.90;;;;;;5047063;28;20324;-69
2022/12/09 04:41:26;;;;;;;;;;;-0.30;99.90;;;;;;5047245;28;19931;-69
2022/12/09 04:43:51;;;;;;;;;;;-0.30;99.90;;;;;;5046937;28;20247;-69
2022/12/09 04:46:17;;;;;;;;;;;-0.30;99.90;;;;;;5047254;28;20033;-69
2022/12/09 04:48:43;;;;;;;;;;;-0.40;99.90;;;;;;5014120;28;19925;-70
2022/12/09 04:51:10;;;;;;;;;;;0.00;99.90;;;;;;5047099;28;20422;-70
2022/12/09 04:53:36;;;;;;;;;;;-0.30;99.90;;;;;;5047227;28;20020;-70
2022/12/09 04:56:02;;;;;;;;;;;-0.30;99.90;;;;;;5046824;28;20424;-70
2022/12/09 04:58:28;;;;;;;;;;;-0.40;99.90;;;;;;5047023;28;19925;-70
2022/12/09 05:00:54;;;;;;;;;;;0.10;99.90;;;;;;5046346;28;20387;-71
2022/12/09 05:03:20;;;;;;;;;;;-0.40;99.90;;;;;;5030589;28;19926;-70
2022/12/09 05:05:45;;;;;;;;;;;-0.10;99.90;;;;;;5031296;28;19926;-69
2022/12/09 05:08:11;;;;;;;;;;;0.00;99.90;;;;;;5047133;28;19968;-69
2022/12/09 05:10:36;;;;;;;;;;;-0.40;99.90;;;;;;5046642;28;19973;-71
2022/12/09 05:13:02;;;;;;;;;;;-0.40;99.90;;;;;;5029475;28;19929;-69
2022/12/09 05:15:28;;;;;;;;;;;0.10;99.90;;;;;;5063946;28;19925;-70
2022/12/09 05:17:54;;;;;;;;;;;-0.40;99.90;;;;;;5046488;28;19933;-70
2022/12/09 05:20:20;;;;;;;;;;;-0.40;99.90;;;;;;5029938;28;20282;-70
2022/12/09 05:22:46;;;;;;;;;;;-0.40;99.90;;;;;;5046369;28;19925;-70
2022/12/09 05:25:11;;;;;;;;;;;-0.40;99.90;;;;;;5046258;28;19940;-70
2022/12/09 05:27:37;;;;;;;;;;;-0.40;99.90;;;;;;5031162;28;19933;-69
2022/12/09 05:30:03;;;;;;;;;;;-0.40;99.90;;;;;;5046028;28;20008;-71
2022/12/09 05:32:29;;;;;;;;;;;-0.40;99.90;;;;;;5046477;28;19986;-69
2022/12/09 05:34:55;;;;;;;;;;;-0.40;99.90;;;;;;5029482;28;19974;-69
2022/12/09 05:37:20;;;;;;;;;;;-0.40;99.90;;;;;;5029694;28;19925;-69
2022/12/09 05:39:46;;;;;;;;;;;-0.40;99.90;;;;;;5030303;28;20256;-69
2022/12/09 05:42:11;;;;;;;;;;;-0.40;99.90;;;;;;5029717;28;19926;-70
2022/12/09 05:44:37;;;;;;;;;;;-0.30;99.90;;;;;;5030038;28;20382;-70
2022/12/09 05:47:02;;;;;;;;;;;-0.40;99.90;;;;;;5030602;28;19933;-70
2022/12/09 05:49:28;;;;;;;;;;;-0.40;99.90;;;;;;5029645;28;20357;-70
2022/12/09 05:51:54;;;;;;;;;;;-0.40;99.90;;;;;;5046024;28;20286;-70
2022/12/09 05:54:20;;;;;;;;;;;-0.40;99.90;;;;;;4997218;28;20315;-70
2022/12/09 05:56:45;;;;;;;;;;;-0.40;99.90;;;;;;5046366;28;20023;-69
2022/12/09 05:59:11;;;;;;;;;;;0.30;99.90;;;;;;5029544;28;19925;-69
2022/12/09 06:01:36;;;;;;;;;;;-0.40;99.90;;;;;;5045579;28;19965;-69
2022/12/09 06:04:02;;;;;;;;;;;-0.30;99.90;;;;;;5029015;28;19933;-69
2022/12/09 06:06:30;;;;;;;;;;;-0.40;99.90;;;;;;5030669;28;19931;-69
2022/12/09 06:08:57;;;;;;;;;;;-0.30;99.90;;;;;;5045902;28;19925;-69
2022/12/09 06:11:23;;;;;;;;;;;0.10;99.90;;;;;;5030596;28;20309;-71
2022/12/09 06:13:49;;;;;;;;;;;-0.40;99.90;;;;;;5029454;28;19929;-69
2022/12/09 06:16:20;;;;;;;;;;;-0.40;99.90;;;;;;5046162;28;19925;-70
2022/12/09 06:18:46;;;;;;;;;;;-0.40;99.90;;;;;;5030459;28;19932;-69
2022/12/09 06:21:12;;;;;;;;;;;-0.40;99.90;;;;;;5028792;28;19925;-70
2022/12/09 06:23:42;;;;;;;;;;;-0.40;99.90;;;;;;5030730;28;20290;-69
2022/12/09 06:26:14;;;;;;;;;;;-0.40;99.90;;;;;;5044858;28;20404;-69
2022/12/09 06:28:39;;;;;;;;;;;-0.50;99.90;;;;;;5045822;28;19933;-69
2022/12/09 06:31:05;;;;;;;;;;;-0.50;99.90;;;;;;5030057;28;19925;-69
2022/12/09 06:33:30;;;;;;;;;;;-0.50;99.90;;;;;;5045965;28;19932;-69
2022/12/09 06:35:59;;;;;;;;;;;-0.50;99.90;;;;;;5029893;28;19932;-69
2022/12/09 06:38:24;;;;;;;;;;;-0.50;99.90;;;;;;5045575;28;20019;-69
2022/12/09 06:40:50;;;;;;;;;;;-0.50;99.90;;;;;;5045385;28;20035;-70
2022/12/09 06:43:15;;;;;;;;;;;-0.60;99.90;;;;;;5044530;28;19925;-69
2022/12/09 06:45:41;;;;;;;;;;;-0.60;99.90;;;;;;5045555;28;19929;-69
2022/12/09 06:48:07;;;;;;;;;;;-0.60;99.90;;;;;;5029633;28;20128;-70
2022/12/09 06:50:32;;;;;;;;;;;-0.60;99.90;;;;;;5062373;28;19936;-69
2022/12/09 06:52:58;;;;;;;;;;;-0.60;99.90;;;;;;5029685;28;20031;-68
2022/12/09 06:55:23;;;;;;;;;;;-0.60;99.90;;;;;;5030015;28;19925;-69
2022/12/09 06:57:49;;;;;;;;;;;-0.60;99.90;;;;;;5028682;28;19929;-70
2022/12/09 07:00:15;;;;;;;;;;;-0.50;99.90;;;;;;5028212;28;19929;-70
2022/12/09 07:02:40;;;;;;;;;;;-0.50;99.90;;;;;;5045205;28;20297;-69
2022/12/09 07:05:06;;;;;;;;;;;-0.50;99.90;;;;;;5029209;28;20334;-69
2022/12/09 07:07:31;;;;;;;;;;;-0.50;99.90;;;;;;5028595;28;20002;-69
2022/12/09 07:09:57;;;;;;;;;;;-0.40;99.90;;;;;;5029468;28;19933;-69
2022/12/09 07:12:22;;;;;;;;;;;-0.40;99.90;;;;;;5044765;28;20023;-69
2022/12/09 07:14:48;;;;;;;;;;;-0.40;99.90;;;;;;5045021;28;20279;-70
2022/12/09 07:17:18;;;;;;;;;;;-0.40;99.90;;;;;;5029020;28;19925;-69
2022/12/09 07:19:43;;;;;;;;;;;-0.40;99.90;;;;;;5044803;28;19926;-70
2022/12/09 07:22:09;;;;;;;;;;;-0.40;99.90;;;;;;5011290;28;19936;-71
2022/12/09 07:24:36;;;;;;;;;;;-0.40;99.90;;;;;;5044192;28;19932;-70
2022/12/09 07:27:02;;;;;;;;;;;-0.40;99.90;;;;;;5028745;28;19933;-69
2022/12/09 07:29:29;;;;;;;;;;;-0.30;99.90;;;;;;5011148;28;19925;-70
2022/12/09 07:31:55;;;;;;;;;;;-0.30;99.90;;;;;;5011822;28;19973;-69
2022/12/09 07:34:21;;;;;;;;;;;-0.40;99.90;;;;;;5028354;28;20064;-70
2022/12/09 07:36:46;;;;;;;;;;;-0.30;99.90;;;;;;5061305;28;19925;-70
2022/12/09 07:39:14;;;;;;;;;;;-0.30;99.90;;;;;;5028699;28;19955;-70
2022/12/09 07:41:39;;;;;;;;;;;-0.30;99.90;;;;;;5029086;28;19977;-70
2022/12/09 07:44:05;;;;;;;;;;;-0.40;99.90;;;;;;5044655;28;19925;-70
2022/12/09 07:46:31;;;;;;;;;;;-0.20;99.90;;;;;;5011536;28;20046;-70
2022/12/09 07:48:56;;;;;;;;;;;-0.30;99.90;;;;;;5044885;28;19977;-70
2022/12/09 07:51:23;;;;;;;;;;;-0.30;99.90;;;;;;5044098;28;19958;-70
2022/12/09 07:53:49;;;;;;;;;;;-0.30;99.90;;;;;;5013635;28;20135;-69
2022/12/09 07:56:15;;;;;;;;;;;-0.20;99.90;;;;;;5014735;28;19925;-71
2022/12/09 07:58:41;;;;;;;;;;;-0.30;99.90;;;;;;5015354;28;20006;-70
2022/12/09 08:01:07;;;;;;;;;;;-0.20;99.90;;;;;;5032342;28;20382;-68
2022/12/09 08:03:33;;;;;;;;;;;-0.20;99.90;;;;;;5031512;28;19925;-72
2022/12/09 08:05:59;;;;;;;;;;;-0.20;99.90;;;;;;5032460;28;19936;-73
2022/12/09 08:08:25;;;;;;;;;;;-0.20;99.90;;;;;;5047721;28;19929;-72
2022/12/09 08:10:50;;;;;;;;;;;-0.10;99.90;;;;;;5048228;28;19925;-72
2022/12/09 08:13:16;;;;;;;;;;;0.20;99.90;;;;;;5047300;28;20275;-73
2022/12/09 08:15:42;;;;;;;;;;;0.00;99.90;;;;;;5031684;28;19925;-71
2022/12/09 08:18:07;;;;;;;;;;;0.00;99.90;;;;;;5047496;28;19976;-72
2022/12/09 08:20:33;;;;;;;;;;;0.00;99.90;;;;;;5047633;28;20025;-71
2022/12/09 08:22:59;;;;;;;;;;;0.00;99.90;;;;;;5030650;28;20304;-75
2022/12/09 08:25:24;;;;;;;;;;;0.10;99.90;;;;;;5047738;28;19925;-74
2022/12/09 08:27:50;;;;;;;;;;;0.40;99.90;;;;;;5031144;28;20007;-73
2022/12/09 08:30:16;;;;;;;;;;;0.20;99.90;;;;;;5047461;28;19926;-73
2022/12/09 08:32:41;;;;;;;;;;;0.20;99.90;;;;;;5047957;28;20021;-73
2022/12/09 08:35:13;;;;;;;;;;;0.30;99.90;;;;;;5031406;28;19925;-74
2022/12/09 08:37:42;;;;;;;;;;;0.30;99.90;;;;;;5030856;28;20299;-74
2022/12/09 08:40:09;;;;;;;;;;;0.40;99.90;;;;;;5032239;28;19925;-74
2022/12/09 08:42:34;;;;;;;;;;;0.50;99.90;;;;;;5047126;28;20328;-74
2022/12/09 08:45:00;;;;;;;;;;;0.50;99.90;;;;;;5031982;28;19987;-75
2022/12/09 08:47:27;;;;;;;;;;;0.50;99.90;;;;;;5047446;28;20412;-76
2022/12/09 08:49:52;;;;;;;;;;;0.60;99.90;;;;;;5014347;28;19950;-74
2022/12/09 08:52:18;;;;;;;;;;;0.60;99.90;;;;;;5047732;28;19925;-74
2022/12/09 08:54:44;;;;;;;;;;;0.60;99.90;;;;;;5031907;28;20381;-73
2022/12/09 08:57:09;;;;;;;;;;;0.60;99.90;;;;;;5032391;28;19959;-70
2022/12/09 08:59:35;;;;;;;;;;;0.70;99.90;;;;;;5014555;28;19925;-72
2022/12/09 09:02:00;;;;;;;;;;;0.70;99.90;;;;;;5047264;28;20297;-71
2022/12/09 09:04:26;;;;;;;;;;;0.70;99.90;;;;;;5046590;28;20386;-70
2022/12/09 09:06:52;;;;;;;;;;;1.10;99.90;;;;;;5064191;28;19974;-69
2022/12/09 09:09:18;;;;;;;;;;;0.80;99.90;;;;;;5030537;28;19925;-68
2022/12/09 09:11:43;;;;;;;;;;;0.80;99.90;;;;;;5047252;28;19925;-69
2022/12/09 09:14:10;;;;;;;;;;;0.80;99.90;;;;;;5030025;28;20290;-68
2022/12/09 09:16:37;;;;;;;;;;;0.90;99.90;;;;;;5046387;28;19932;-69
2022/12/09 09:19:04;;;;;;;;;;;0.90;99.90;;;;;;5031602;28;19925;-68
2022/12/09 09:21:30;;;;;;;;;;;0.90;99.90;;;;;;5013592;28;20149;-69
2022/12/09 09:23:56;;;;;;;;;;;0.90;99.90;;;;;;5031164;28;19950;-70
2022/12/09 09:26:24;;;;;;;;;;;0.90;99.90;;;;;;5046830;28;19925;-72
2022/12/09 09:28:50;;;;;;;;;;;0.90;99.90;;;;;;4997565;28;19948;-72
2022/12/09 09:31:16;;;;;;;;;;;1.00;99.90;;;;;;5013972;28;19929;-71
2022/12/09 09:33:42;;;;;;;;;;;0.90;99.90;;;;;;5046858;28;20420;-71
2022/12/09 09:36:10;;;;;;;;;;;0.90;99.90;;;;;;5013940;28;19975;-71
2022/12/09 09:38:36;;;;;;;;;;;0.90;99.90;;;;;;5046144;28;19971;-71
2022/12/09 09:41:06;;;;;;;;;;;0.90;99.90;;;;;;5013538;28;19929;-70
2022/12/09 09:43:35;;;;;;;;;;;0.90;99.90;;;;;;5046463;28;19925;-71
2022/12/09 09:46:02;;;;;;;;;;;0.80;99.90;;;;;;5031100;28;19925;-71
2022/12/09 09:48:30;;;;;;;;;;;0.80;99.90;;;;;;5029719;28;19925;-70
2022/12/09 09:51:02;;;;;;;;;;;0.70;99.90;;;;;;5046213;28;19925;-70
2022/12/09 09:53:31;;;;;;;;;;;0.80;99.90;;;;;;5028676;28;19921;-71
2022/12/09 09:56:01;;;;;;;;;;;0.70;99.90;;;;;;5030862;28;19921;-70
2022/12/09 09:58:45;;;;;;;;;;;0.70;99.90;;;;;;5031254;28;20354;-72
2022/12/09 10:01:12;;;;;;;;;;;0.80;99.90;;;;;;5046286;28;19925;-71
2022/12/09 10:03:44;;;;;;;;;;;0.80;99.90;;;;;;5045875;28;20431;-71
2022/12/09 10:06:15;;;;;;;;;;;0.80;99.90;;;;;;5030949;28;19929;-70
2022/12/09 10:08:55;;;;;;;;;;;0.80;99.90;;;;;;5045967;28;19929;-70
2022/12/09 10:11:47;;;;;;;;;;;0.80;99.90;;;;;;5030824;28;19925;-70
2022/12/09 10:14:18;;;;;;;;;;;0.80;99.90;;;;;;5030159;28;20015;-70
2022/12/09 10:16:54;;;;;;;;;;;0.70;99.90;;;;;;5044836;28;20250;-71
2022/12/09 10:19:19;;;;;;;;;;;0.80;99.90;;;;;;5030442;28;19925;-71
2022/12/09 10:21:46;;;;;;;;;;;0.80;99.90;;;;;;5029962;28;20016;-71
2022/12/09 10:24:16;;;;;;;;;;;1.40;99.90;;;;;;5029627;28;19929;-71
2022/12/09 10:26:42;;;;;;;;;;;1.00;99.90;;;;;;5030346;28;20300;-71
2022/12/09 10:29:12;;;;;;;;;;;0.80;99.90;;;;;;5012797;28;19974;-70
2022/12/09 10:31:38;;;;;;;;;;;0.80;99.90;;;;;;5045057;28;20371;-71
2022/12/09 10:34:03;;;;;;;;;;;0.80;99.90;;;;;;5030063;28;19979;-73
2022/12/09 10:36:31;;;;;;;;;;;1.20;99.90;;;;;;5028941;28;19925;-72
2022/12/09 10:38:56;;;;;;;;;;;0.80;99.90;;;;;;5030346;28;19925;-72
2022/12/09 10:44:26;;;;;;;;;;;0.80;99.90;;;;;;5046210;28;19932;-74
2022/12/09 10:46:56;;;;;;;;;;;0.80;99.90;;;;;;5012173;28;20011;-72
2022/12/09 10:49:22;;;;;;;;;;;0.80;99.90;;;;;;5045595;28;20282;-72
2022/12/09 10:51:49;;;;;;;;;;;0.80;99.90;;;;;;5029847;28;19931;-74
2022/12/09 10:54:29;;;;;;;;;;;0.80;99.90;;;;;;5045735;28;20422;-72
2022/12/09 10:57:01;;;;;;;;;;;0.90;99.90;;;;;;5030062;28;19926;-71
2022/12/09 10:59:31;;;;;;;;;;;0.80;99.90;;;;;;5045981;28;20020;-72
2022/12/09 11:01:59;;;;;;;;;;;0.80;99.90;;;;;;5044999;28;19925;-71
2022/12/09 11:04:24;;;;;;;;;;;0.90;99.90;;;;;;4996268;28;19925;-70
2022/12/09 11:06:50;;;;;;;;;;;1.00;99.90;;;;;;5044858;28;20353;-69
2022/12/09 11:09:25;;;;;;;;;;;1.00;99.90;;;;;;5029720;28;19978;-69
2022/12/09 11:11:50;;;;;;;;;;;1.00;99.90;;;;;;5045157;28;19929;-69
2022/12/09 11:14:21;;;;;;;;;;;1.00;99.90;;;;;;5029926;28;19936;-68
2022/12/09 11:17:07;;;;;;;;;;;1.00;99.90;;;;;;5011772;28;19929;-69
2022/12/09 11:19:34;;;;;;;;;;;1.00;99.90;;;;;;5012631;28;19929;-69
2022/12/09 11:22:18;;;;;;;;;;;1.00;99.90;;;;;;5011877;28;20027;-68
2022/12/09 11:24:44;;;;;;;;;;;1.00;99.90;;;;;;5045080;28;19925;-68
2022/12/09 11:27:25;;;;;;;;;;;1.10;99.90;;;;;;5029483;28;19932;-67
2022/12/09 11:30:09;;;;;;;;;;;1.00;99.90;;;;;;5028927;28;20403;-68
2022/12/09 11:32:58;;;;;;;;;;;0.90;99.90;;;;;;5045029;28;19929;-68
2022/12/09 11:35:35;;;;;;;;;;;1.00;99.90;;;;;;5019617;28;19932;-68
2022/12/09 11:38:03;;;;;;;;;;;0.90;99.90;;;;;;5029453;28;19926;-69
2022/12/09 11:40:30;;;;;;;;;;;0.80;99.90;;;;;;5044944;28;19929;-69
2022/12/09 11:42:56;;;;;;;;;;;0.80;99.90;;;;;;5044560;28;19970;-69
2022/12/09 11:45:25;;;;;;;;;;;0.80;99.90;;;;;;5029388;28;20426;-69
2022/12/09 11:47:52;;;;;;;;;;;0.80;99.90;;;;;;5044524;28;19931;-70
2022/12/09 11:50:23;;;;;;;;;;;0.90;99.90;;;;;;5044637;28;19926;-69
2022/12/09 11:53:04;;;;;;;;;;;0.80;99.90;;;;;;5029007;28;20267;-70
2022/12/09 11:55:31;;;;;;;;;;;0.80;99.90;;;;;;5044820;28;19925;-68
2022/12/09 11:58:02;;;;;;;;;;;0.80;99.90;;;;;;4995530;28;20063;-68
2022/12/09 12:00:54;;;;;;;;;;;0.90;99.90;;;;;;5044831;28;19925;-69
2022/12/09 12:03:20;;;;;;;;;;;0.90;99.90;;;;;;5013940;28;20382;-68
2022/12/09 12:05:50;;;;;;;;;;;1.40;99.90;;;;;;5044475;28;19931;-67
2022/12/09 12:08:34;;;;;;;;;;;0.90;99.90;;;;;;5045014;28;19925;-68
2022/12/09 12:11:04;;;;;;;;;;;0.90;99.90;;;;;;5027929;28;20366;-68
2022/12/09 12:13:33;;;;;;;;;;;0.90;99.90;;;;;;5028415;28;19977;-68
2022/12/09 12:16:05;;;;;;;;;;;0.90;99.90;;;;;;5044004;28;19979;-68
2022/12/09 12:18:35;;;;;;;;;;;0.90;99.90;;;;;;5044536;28;19925;-68
2022/12/09 12:21:00;;;;;;;;;;;0.90;99.90;;;;;;5028797;28;19932;-69
2022/12/09 12:23:29;;;;;;;;;;;0.90;99.90;;;;;;5044122;28;19925;-65
2022/12/09 12:26:13;;;;;;;;;;;0.90;99.90;;;;;;5043598;28;19925;-68
2022/12/09 12:28:59;;;;;;;;;;;0.90;99.90;;;;;;5044505;28;19929;-68
2022/12/09 12:31:43;;;;;;;;;;;0.90;99.90;;;;;;5028237;28;19978;-69
2022/12/09 12:34:32;;;;;;;;;;;1.00;99.90;;;;;;5028339;28;19930;-67
2022/12/09 12:37:01;;;;;;;;;;;1.00;99.90;;;;;;5043842;28;19925;-67
2022/12/09 12:39:41;;;;;;;;;;;1.00;99.90;;;;;;5044249;28;20002;-69
2022/12/09 12:42:06;;;;;;;;;;;1.00;99.90;;;;;;5031550;28;19985;-69
2022/12/09 12:47:28;;;;;;;;;;;1.00;99.90;;;;;;5047306;28;19929;-71
2022/12/09 12:49:54;;;;;;;;;;;1.00;99.90;;;;;;5046983;28;19932;-70
2022/12/09 12:52:19;;;;;;;;;;;1.00;99.90;;;;;;5047738;28;19932;-71
2022/12/09 12:54:45;;;;;;;;;;;1.00;99.90;;;;;;5032204;28;19925;-70
2022/12/09 12:57:32;;;;;;;;;;;0.90;99.90;;;;;;5030803;28;19968;-71
2022/12/09 13:00:18;;;;;;;;;;;0.90;99.90;;;;;;5047351;28;19925;-71
2022/12/09 13:02:58;;;;;;;;;;;0.90;99.90;;;;;;5030957;28;19932;-70
2022/12/09 13:05:25;;;;;;;;;;;0.90;99.90;;;;;;5031941;28;20283;-72
2022/12/09 13:08:09;;;;;;;;;;;0.90;99.90;;;;;;5031383;28;19933;-70
2022/12/09 13:10:34;;;;;;;;;;;0.90;99.90;;;;;;5047520;28;20286;-71
2022/12/09 13:13:01;;;;;;;;;;;0.90;99.90;;;;;;5063364;28;19929;-71
2022/12/09 13:15:33;;;;;;;;;;;0.90;99.90;;;;;;5030922;28;20024;-71
2022/12/09 13:18:11;;;;;;;;;;;0.90;99.90;;;;;;5047178;28;20435;-71
2022/12/09 13:20:50;;;;;;;;;;;0.90;99.90;;;;;;5063851;28;19925;-71
2022/12/09 13:23:22;;;;;;;;;;;0.80;99.90;;;;;;5014278;28;19925;-72
2022/12/09 13:25:55;;;;;;;;;;;0.80;99.90;;;;;;5047405;28;19925;-71
2022/12/09 13:28:25;;;;;;;;;;;0.80;99.90;;;;;;5030138;28;20427;-71
2022/12/09 13:30:53;;;;;;;;;;;0.80;99.90;;;;;;5031385;28;19955;-71
2022/12/09 13:33:34;;;;;;;;;;;0.80;99.90;;;;;;5030637;28;20282;-71
2022/12/09 13:36:05;;;;;;;;;;;0.80;99.90;;;;;;5046479;28;19925;-71
2022/12/09 13:38:31;;;;;;;;;;;0.80;99.90;;;;;;5047008;28;20279;-71
2022/12/09 13:40:56;;;;;;;;;;;0.70;99.90;;;;;;5063242;28;20007;-71
2022/12/09 13:43:30;;;;;;;;;;;0.80;99.90;;;;;;5046921;28;19925;-72
2022/12/09 13:45:57;;;;;;;;;;;0.80;99.90;;;;;;5046832;28;20266;-69
2022/12/09 13:48:23;;;;;;;;;;;0.80;99.90;;;;;;5046574;28;20382;-71
2022/12/09 13:50:50;;;;;;;;;;;0.80;99.90;;;;;;5046343;28;20020;-72
2022/12/09 13:53:21;;;;;;;;;;;0.80;99.90;;;;;;5029859;28;19921;-71
2022/12/09 13:55:49;;;;;;;;;;;0.80;99.90;;;;;;5030274;28;19925;-71
2022/12/09 13:58:26;;;;;;;;;;;0.80;99.90;;;;;;5046313;28;20327;-71
2022/12/09 14:01:15;;;;;;;;;;;0.80;99.90;;;;;;5063023;28;19925;-71
2022/12/09 14:03:47;;;;;;;;;;;0.80;99.90;;;;;;5021101;28;19973;-71
2022/12/09 14:06:25;;;;;;;;;;;0.80;99.90;;;;;;5013407;28;19925;-70
2022/12/09 14:08:52;;;;;;;;;;;0.80;99.90;;;;;;5030123;28;19932;-70
2022/12/09 14:11:36;;;;;;;;;;;0.70;99.90;;;;;;5045998;28;19978;-70
2022/12/09 14:14:21;;;;;;;;;;;0.70;99.90;;;;;;5024691;27;19926;-71
2022/12/09 14:16:47;;;;;;;;;;;0.70;99.90;;;;;;4990458;28;19926;-71
2022/12/09 14:19:25;;;;;;;;;;;0.70;99.90;;;;;;5006648;28;19999;-70
2022/12/09 14:22:16;;;;;;;;;;;0.70;99.90;;;;;;5022932;28;19926;-71
2022/12/09 14:24:51;;;;;;;;;;;0.60;99.90;;;;;;5006891;28;20013;-70
2022/12/09 14:27:21;;;;;;;;;;;0.60;99.90;;;;;;5022891;28;19925;-70
2022/12/09 14:29:52;;;;;;;;;;;0.60;99.90;;;;;;5023298;28;20067;-71
2022/12/09 14:32:25;;;;;;;;;;;0.60;99.90;;;;;;5006360;28;20004;-70
2022/12/09 14:35:09;;;;;;;;;;;0.60;99.90;;;;;;5022773;28;19926;-71
2022/12/09 14:37:41;;;;;;;;;;;0.50;99.90;;;;;;5023226;28;19926;-71